Time;durP1;ratioP1;P1;durP2;ratioP2;P2;SDS_P1;SDS_P2;PMS_P1;PMS_P2;Temp;Humidity;BMP_temperature;BMP_pressure;BME280_temperature;BME280_humidity;BME280_pressure;Samples;Min_cycle;Max_cycle;Signal;HPM_P1;HPM_P2
2021/12/06 00:03:44;;;;;;;;;;;;;;;22.62;29.53;97130.19;5227855;22;2093;-82
2021/12/06 00:06:09;;;;;;;;;;;;;;;22.91;28.94;97128.16;5038978;28;992;-82
2021/12/06 00:08:35;;;;;;;;;;;;;;;22.75;29.16;97132.88;5037107;28;818;-80
2021/12/06 00:11:06;;;;;;;;;;;;;;;22.32;29.66;97129.06;5021983;28;952;-77
2021/12/06 00:13:32;;;;;;;;;;;;;;;22.22;29.61;97136.00;5037613;28;786;-81
2021/12/06 00:15:58;;;;;;;;;;;;;;;22.23;29.71;97131.91;5021866;28;977;-81
2021/12/06 00:18:26;;;;;;;;;;;;;;;22.64;29.83;97126.91;5020045;28;977;-82
2021/12/06 00:20:51;;;;;;;;;;;;;;;22.83;29.61;97121.97;5021372;28;891;-80
2021/12/06 00:23:17;;;;;;;;;;;;;;;22.66;29.39;97118.69;5037154;28;1952;-82
2021/12/06 00:25:42;;;;;;;;;;;;;;;22.34;29.35;97120.91;5038614;28;965;-79
2021/12/06 00:28:08;;;;;;;;;;;;;;;22.20;29.49;97127.19;5020409;28;960;-80
2021/12/06 00:30:33;;;;;;;;;;;;;;;22.38;30.06;97125.63;5038114;28;802;-82
2021/12/06 00:32:58;;;;;;;;;;;;;;;22.79;29.76;97122.13;5257491;22;3534;-81
2021/12/06 00:35:25;;;;;;;;;;;;;;;22.80;29.54;97117.28;5037921;28;758;-82
2021/12/06 00:37:57;;;;;;;;;;;;;;;22.63;29.00;97117.59;5020250;28;965;-80
2021/12/06 00:40:24;;;;;;;;;;;;;;;22.39;29.63;97119.50;4977287;29;1100;-79
2021/12/06 00:42:50;;;;;;;;;;;;;;;22.19;29.53;97125.63;4923343;29;1891;-81
2021/12/06 00:45:15;;;;;;;;;;;;;;;22.25;29.16;97120.91;4939044;29;760;-79
2021/12/06 00:47:43;;;;;;;;;;;;;;;22.64;30.25;97109.88;4958460;29;1081;-81
2021/12/06 00:50:08;;;;;;;;;;;;;;;22.67;29.89;97114.59;4957928;29;958;-80
2021/12/06 00:52:34;;;;;;;;;;;;;;;22.72;29.97;97101.84;4958483;29;1061;-80
2021/12/06 00:54:59;;;;;;;;;;;;;;;22.58;29.52;97106.09;4919119;29;1462;-81
2021/12/06 00:57:25;;;;;;;;;;;;;;;22.29;29.83;97115.88;4920721;29;941;-79
2021/12/06 00:59:51;;;;;;;;;;;;;;;22.40;29.45;97112.56;4919465;29;1126;-79
2021/12/06 01:02:16;;;;;;;;;;;;;;;22.25;29.50;97118.06;4882629;29;1884;-80
2021/12/06 01:04:42;;;;;;;;;;;;;;;22.41;29.82;97121.84;4882098;29;970;-82
2021/12/06 01:07:08;;;;;;;;;;;;;;;22.69;30.00;97114.13;4900410;29;1150;-80
2021/12/06 01:09:36;;;;;;;;;;;;;;;22.84;29.81;97107.31;4844951;29;979;-79
2021/12/06 01:12:02;;;;;;;;;;;;;;;22.65;29.41;97100.13;4830032;29;873;-82
2021/12/06 01:14:27;;;;;;;;;;;;;;;22.36;29.69;97112.72;4826693;29;1004;-81
2021/12/06 01:16:53;;;;;;;;;;;;;;;22.39;29.73;97118.72;4827439;29;1170;-81
2021/12/06 01:19:20;;;;;;;;;;;;;;;22.44;29.34;97123.75;4800707;29;871;-81
2021/12/06 01:21:58;;;;;;;;;;;;;;;22.57;30.70;97118.69;4824508;29;1977;-81
2021/12/06 01:24:29;;;;;;;;;;;;;;;22.88;29.46;97119.31;4823118;29;1095;-81
2021/12/06 01:31:57;;;;;;;;;;;;;;;22.30;29.40;97096.81;4900426;29;1442;-78
2021/12/06 01:39:55;;;;;;;;;;;;;;;22.72;29.37;97085.59;4942585;29;1137;-80
2021/12/06 01:42:22;;;;;;;;;;;;;;;22.41;29.66;97073.66;4941848;29;1953;-80
2021/12/06 01:44:51;;;;;;;;;;;;;;;22.43;29.49;97071.91;4941070;29;874;-81
2021/12/06 01:47:22;;;;;;;;;;;;;;;22.20;29.63;97070.50;4904069;29;1268;-80
2021/12/06 01:49:50;;;;;;;;;;;;;;;22.40;29.85;97061.53;4918915;29;1141;-81
2021/12/06 01:52:18;;;;;;;;;;;;;;;22.53;30.41;97062.16;4904172;29;1134;-81
2021/12/06 01:54:44;;;;;;;;;;;;;;;22.81;29.49;97062.13;4881139;29;1225;-82
2021/12/06 01:57:10;;;;;;;;;;;;;;;22.68;29.38;97059.44;4866019;29;1153;-81
2021/12/06 01:59:38;;;;;;;;;;;;;;;22.58;29.15;97043.72;4894857;29;1377;-80
2021/12/06 02:02:04;;;;;;;;;;;;;;;22.28;29.30;97043.44;4848444;29;1895;-80
2021/12/06 02:04:32;;;;;;;;;;;;;;;22.36;29.34;97058.06;4844897;29;1280;-81
2021/12/06 02:06:58;;;;;;;;;;;;;;;22.52;30.55;97057.75;4808325;29;1183;-81
2021/12/06 02:09:26;;;;;;;;;;;;;;;22.71;29.58;97060.56;4808123;30;836;-81
2021/12/06 02:11:55;;;;;;;;;;;;;;;22.79;29.46;97076.75;4810278;29;1295;-81
2021/12/06 02:17:18;;;;;;;;;;;;;;;22.32;29.33;97095.06;4793791;30;1153;-80
2021/12/06 02:19:49;;;;;;;;;;;;;;;22.28;29.02;97080.28;4808951;29;990;-80
2021/12/06 02:22:22;;;;;;;;;;;;;;;22.40;30.57;97072.09;4830181;29;1891;-82
2021/12/06 02:24:48;;;;;;;;;;;;;;;22.75;29.62;97081.03;4832013;29;1026;-81
2021/12/06 02:27:13;;;;;;;;;;;;;;;22.78;29.57;97075.19;4811911;30;979;-82
2021/12/06 02:29:39;;;;;;;;;;;;;;;22.70;28.96;97065.44;4811457;30;975;-81
2021/12/06 02:32:09;;;;;;;;;;;;;;;22.50;29.07;97059.50;4830085;29;1275;-82
2021/12/06 02:34:36;;;;;;;;;;;;;;;22.47;28.83;97055.53;4846834;29;1269;-81
2021/12/06 02:37:02;;;;;;;;;;;;;;;22.28;29.23;97054.78;4818745;29;1254;-80
2021/12/06 02:39:29;;;;;;;;;;;;;;;22.61;30.08;97054.13;4828704;29;1360;-81
2021/12/06 02:41:56;;;;;;;;;;;;;;;22.73;29.58;97036.13;4832633;29;1883;-81
2021/12/06 02:44:22;;;;;;;;;;;;;;;22.84;29.11;97036.41;4845091;29;880;-81
2021/12/06 02:46:47;;;;;;;;;;;;;;;22.41;29.28;97046.09;5129940;22;4339;-81
2021/12/06 02:49:13;;;;;;;;;;;;;;;22.44;29.34;97056.50;5022149;28;1260;-81
2021/12/06 02:51:38;;;;;;;;;;;;;;;22.15;29.82;97059.81;4999142;28;973;-80
2021/12/06 02:54:04;;;;;;;;;;;;;;;22.26;29.56;97053.66;4978288;28;1580;-80
2021/12/06 02:59:19;;;;;;;;;;;;;;;22.71;29.80;97064.19;4943243;29;1220;-80
2021/12/06 03:01:46;;;;;;;;;;;;;;;22.82;29.50;97069.38;4937893;29;1947;-81
2021/12/06 03:04:11;;;;;;;;;;;;;;;22.59;29.29;97068.00;4883727;29;1022;-81
2021/12/06 03:06:37;;;;;;;;;;;;;;;22.45;29.37;97065.78;4829198;29;1249;-81
2021/12/06 03:09:09;;;;;;;;;;;;;;;22.34;29.34;97064.22;4828775;29;996;-77
2021/12/06 03:11:36;;;;;;;;;;;;;;;22.39;29.89;97059.19;4813967;29;1242;-80
2021/12/06 03:14:03;;;;;;;;;;;;;;;22.74;29.31;97066.09;4791689;30;1213;-81
2021/12/06 03:16:29;;;;;;;;;;;;;;;22.97;29.02;97066.69;5218653;23;4261;-82
2021/12/06 03:18:55;;;;;;;;;;;;;;;22.33;29.26;97059.03;5040989;28;1146;-81
2021/12/06 03:21:21;;;;;;;;;;;;;;;22.24;29.25;97065.47;5038115;28;1252;-81
2021/12/06 03:23:47;;;;;;;;;;;;;;;22.26;29.22;97062.94;4996902;28;1914;-82
2021/12/06 03:26:12;;;;;;;;;;;;;;;22.53;30.27;97069.88;5021905;28;1248;-81
2021/12/06 03:28:39;;;;;;;;;;;;;;;22.75;29.16;97061.97;5003328;28;1248;-77
2021/12/06 03:31:06;;;;;;;;;;;;;;;22.84;29.07;97056.25;5036371;28;1214;-80
2021/12/06 03:33:36;;;;;;;;;;;;;;;22.63;28.88;97051.59;4987403;28;1189;-82
2021/12/06 03:36:02;;;;;;;;;;;;;;;22.45;29.01;97060.13;5021731;28;1120;-79
2021/12/06 03:38:28;;;;;;;;;;;;;;;22.41;29.65;97056.66;4997117;28;1150;-81
2021/12/06 03:40:54;;;;;;;;;;;;;;;22.69;29.59;97052.53;4998562;28;1159;-81
2021/12/06 03:43:19;;;;;;;;;;;;;;;22.96;29.09;97051.72;4941371;29;1911;-81
2021/12/06 03:45:45;;;;;;;;;;;;;;;22.66;28.94;97044.19;4958672;29;1159;-80
2021/12/06 03:48:10;;;;;;;;;;;;;;;22.45;28.95;97043.13;4919613;29;1030;-79
2021/12/06 03:50:36;;;;;;;;;;;;;;;22.31;29.09;97055.88;4920942;29;1029;-81
2021/12/06 03:53:01;;;;;;;;;;;;;;;22.43;28.56;97059.78;4920140;29;1292;-80
2021/12/06 03:55:27;;;;;;;;;;;;;;;22.65;29.86;97057.59;4890100;29;913;-79
2021/12/06 03:57:53;;;;;;;;;;;;;;;22.92;28.90;97050.31;4885248;29;963;-81
2021/12/06 04:00:18;;;;;;;;;;;;;;;22.86;28.65;97059.44;4900716;29;1249;-78
2021/12/06 04:02:51;;;;;;;;;;;;;;;22.42;29.10;97063.91;4900730;29;1887;-80
2021/12/06 04:05:19;;;;;;;;;;;;;;;22.24;29.35;97065.47;4919491;29;1214;-80
2021/12/06 04:07:45;;;;;;;;;;;;;;;22.35;28.71;97054.47;4909459;29;1312;-81
2021/12/06 04:10:11;;;;;;;;;;;;;;;22.48;30.40;97062.00;4907744;29;1075;-79
2021/12/06 04:12:37;;;;;;;;;;;;;;;22.78;29.34;97041.16;4907834;29;1080;-80
2021/12/06 04:15:07;;;;;;;;;;;;;;;22.84;28.83;97050.59;4904124;29;1590;-80
2021/12/06 04:17:34;;;;;;;;;;;;;;;22.48;29.35;97042.94;4888776;29;1121;-82
2021/12/06 04:20:01;;;;;;;;;;;;;;;22.53;28.94;97044.34;4907594;29;1208;-82
2021/12/06 04:22:27;;;;;;;;;;;;;;;22.43;28.98;97054.13;4923567;29;1892;-80
2021/12/06 04:24:53;;;;;;;;;;;;;;;22.42;29.18;97058.22;4923133;29;1114;-80
2021/12/06 04:27:21;;;;;;;;;;;;;;;22.74;29.48;97051.91;4923055;29;1103;-81
2021/12/06 04:29:49;;;;;;;;;;;;;;;22.77;29.12;97056.59;4885780;29;1277;-80
2021/12/06 04:32:18;;;;;;;;;;;;;;;22.57;29.01;97062.00;4901066;29;1241;-78
2021/12/06 04:34:43;;;;;;;;;;;;;;;22.22;29.46;97067.97;4899066;29;1541;-81
2021/12/06 04:37:11;;;;;;;;;;;;;;;22.33;29.13;97062.66;4885397;29;1177;-81
2021/12/06 04:39:37;;;;;;;;;;;;;;;22.45;29.33;97060.13;4897863;29;1328;-82
2021/12/06 04:42:03;;;;;;;;;;;;;;;22.75;29.44;97059.16;4901201;29;1883;-79
2021/12/06 04:44:29;;;;;;;;;;;;;;;22.83;29.13;97054.69;4900105;29;1106;-81
2021/12/06 04:46:55;;;;;;;;;;;;;;;22.61;29.23;97065.47;4885123;29;1250;-80
2021/12/06 04:49:24;;;;;;;;;;;;;;;22.46;29.10;97065.31;4881209;29;1194;-80
2021/12/06 04:51:51;;;;;;;;;;;;;;;22.04;29.46;97084.94;4933648;29;1225;-81
2021/12/06 04:54:17;;;;;;;;;;;;;;;22.38;28.75;97091.59;4937443;29;1160;-82
2021/12/06 04:56:44;;;;;;;;;;;;;;;22.42;29.98;97092.25;4922993;29;1224;-81
2021/12/06 04:59:13;;;;;;;;;;;;;;;22.70;29.31;97090.97;4922672;29;1201;-81
2021/12/06 05:01:39;;;;;;;;;;;;;;;22.82;29.07;97087.16;4938684;29;1887;-81
2021/12/06 05:04:08;;;;;;;;;;;;;;;23.02;28.98;97077.38;4937711;29;979;-81
2021/12/06 05:06:35;;;;;;;;;;;;;;;22.68;28.67;97099.16;4941788;29;931;-81
2021/12/06 05:09:07;;;;;;;;;;;;;;;22.46;29.12;97099.31;4956488;29;1114;-78
2021/12/06 05:11:33;;;;;;;;;;;;;;;22.45;29.00;97097.75;4958270;29;1369;-82
2021/12/06 05:14:01;;;;;;;;;;;;;;;22.34;29.11;97103.91;4925845;29;1286;-81
2021/12/06 05:16:28;;;;;;;;;;;;;;;22.59;29.96;97102.00;4957489;29;1212;-81
2021/12/06 05:18:54;;;;;;;;;;;;;;;22.83;29.14;97100.06;4976156;28;1120;-80
2021/12/06 05:21:19;;;;;;;;;;;;;;;22.78;28.87;97099.94;4976978;29;1210;-80
2021/12/06 05:23:45;;;;;;;;;;;;;;;22.58;28.99;97089.06;4940771;28;1891;-79
2021/12/06 05:26:11;;;;;;;;;;;;;;;22.30;28.96;97103.25;4944550;29;1814;-82
2021/12/06 05:28:42;;;;;;;;;;;;;;;22.27;29.12;97098.53;4956244;29;1605;-82
2021/12/06 05:31:14;;;;;;;;;;;;;;;22.43;29.15;97090.97;4958494;29;1085;-81
2021/12/06 05:33:41;;;;;;;;;;;;;;;22.72;29.38;97099.78;4940376;29;1231;-81
2021/12/06 05:36:07;;;;;;;;;;;;;;;22.92;28.93;97092.84;4919988;29;967;-82
2021/12/06 05:38:32;;;;;;;;;;;;;;;22.56;29.49;97098.06;4868264;29;1110;-81
2021/12/06 05:40:58;;;;;;;;;;;;;;;22.37;29.23;97113.50;4883090;29;988;-77
2021/12/06 05:43:24;;;;;;;;;;;;;;;22.26;29.35;97111.13;5063829;22;4043;-82
2021/12/06 05:45:49;;;;;;;;;;;;;;;22.37;29.94;97116.31;4997565;28;1590;-82
2021/12/06 05:48:15;;;;;;;;;;;;;;;22.67;29.33;97114.59;4999535;28;1009;-81
2021/12/06 05:50:41;;;;;;;;;;;;;;;22.81;29.19;97118.84;4999908;28;969;-82
2021/12/06 05:53:06;;;;;;;;;;;;;;;22.73;28.75;97128.94;4999453;28;984;-82
2021/12/06 05:55:31;;;;;;;;;;;;;;;22.44;28.97;97130.22;5018995;28;934;-81
2021/12/06 05:58:00;;;;;;;;;;;;;;;22.55;28.60;97141.06;5003734;28;1503;-82
2021/12/06 06:00:28;;;;;;;;;;;;;;;22.17;29.43;97136.59;5004089;28;866;-81
2021/12/06 06:02:53;;;;;;;;;;;;;;;22.11;29.22;97141.31;5003580;28;1970;-82
2021/12/06 06:05:20;;;;;;;;;;;;;;;22.30;29.46;97151.44;5020901;28;981;-82
2021/12/06 06:07:46;;;;;;;;;;;;;;;22.57;29.71;97144.22;5003658;28;1025;-83
2021/12/06 06:10:11;;;;;;;;;;;;;;;22.93;29.31;97136.97;4970589;28;914;-81
2021/12/06 06:12:37;;;;;;;;;;;;;;;22.86;29.45;97141.69;5003942;28;1036;-81
2021/12/06 06:15:02;;;;;;;;;;;;;;;22.42;29.52;97140.44;5020023;28;975;-82
2021/12/06 06:17:32;;;;;;;;;;;;;;;22.11;29.76;97138.50;5003674;28;966;-82
2021/12/06 06:19:58;;;;;;;;;;;;;;;22.23;29.90;97137.59;5019420;28;945;-82
2021/12/06 06:22:23;;;;;;;;;;;;;;;22.67;29.76;97137.28;5020897;28;1959;-82
2021/12/06 06:24:48;;;;;;;;;;;;;;;23.04;28.95;97140.09;5020137;28;872;-83
2021/12/06 06:27:14;;;;;;;;;;;;;;;22.60;29.05;97137.59;5020707;28;1156;-82
2021/12/06 06:29:39;;;;;;;;;;;;;;;22.26;29.81;97152.84;5020210;28;820;-82
2021/12/06 06:32:05;;;;;;;;;;;;;;;22.32;29.24;97151.75;5020158;28;1013;-82
2021/12/06 06:34:31;;;;;;;;;;;;;;;22.55;29.83;97149.56;5003151;28;1459;-83
2021/12/06 06:36:56;;;;;;;;;;;;;;;22.75;29.32;97138.56;5020542;28;949;-83
2021/12/06 06:39:22;;;;;;;;;;;;;;;22.75;29.12;97135.72;5002470;28;1071;-82
2021/12/06 06:41:48;;;;;;;;;;;;;;;22.65;29.22;97154.00;5020369;28;1890;-82
2021/12/06 06:44:15;;;;;;;;;;;;;;;22.42;29.09;97154.59;5003102;28;916;-82
2021/12/06 06:46:41;;;;;;;;;;;;;;;22.35;29.46;97152.88;5020285;28;945;-83
2021/12/06 06:49:06;;;;;;;;;;;;;;;22.26;29.66;97147.97;5002776;28;872;-83
2021/12/06 06:51:32;;;;;;;;;;;;;;;22.70;29.90;97135.56;5020405;28;970;-83
2021/12/06 06:53:57;;;;;;;;;;;;;;;22.94;29.07;97127.97;5019155;28;775;-81
2021/12/06 06:56:23;;;;;;;;;;;;;;;22.60;29.33;97132.72;5020647;28;1032;-84
2021/12/06 06:58:48;;;;;;;;;;;;;;;22.52;29.24;97142.00;5019884;28;1084;-83
2021/12/06 07:01:14;;;;;;;;;;;;;;;22.27;29.83;97134.59;5020929;28;1020;-82
2021/12/06 07:03:39;;;;;;;;;;;;;;;22.42;29.70;97146.09;5018640;28;1883;-82
2021/12/06 07:06:04;;;;;;;;;;;;;;;22.63;29.82;97137.44;5020155;28;824;-82
2021/12/06 07:08:30;;;;;;;;;;;;;;;22.84;29.53;97138.53;5019311;28;1033;-78
2021/12/06 07:10:56;;;;;;;;;;;;;;;22.64;29.17;97124.06;5020809;28;953;-82
2021/12/06 07:13:22;;;;;;;;;;;;;;;22.46;29.57;97138.22;4959901;29;1116;-82
2021/12/06 07:15:47;;;;;;;;;;;;;;;22.28;29.36;97150.34;4960436;29;1008;-82
2021/12/06 07:18:13;;;;;;;;;;;;;;;22.39;29.08;97147.06;4959346;29;1159;-83
2021/12/06 07:20:38;;;;;;;;;;;;;;;22.54;29.77;97145.19;4944563;29;1131;-82
2021/12/06 07:23:04;;;;;;;;;;;;;;;22.76;29.85;97140.13;4959652;29;1954;-81
2021/12/06 07:25:29;;;;;;;;;;;;;;;22.79;29.35;97139.16;4959982;29;916;-81
2021/12/06 07:27:55;;;;;;;;;;;;;;;22.70;29.65;97139.19;5243053;22;4109;-81
2021/12/06 07:30:20;;;;;;;;;;;;;;;23.47;28.82;97129.59;5193983;23;3527;-80
2021/12/06 07:32:47;;;;;;;;;;;;;;;23.38;29.39;97139.72;5059026;28;802;-79
2021/12/06 07:35:13;;;;;;;;;;;;;;;22.70;30.14;97130.69;5058220;28;881;-77
2021/12/06 07:37:38;;;;;;;;;;;;;;;22.77;29.28;97141.69;5059121;28;988;-79
2021/12/06 07:40:04;;;;;;;;;;;;;;;22.49;29.13;97149.41;5058030;28;1040;-80
2021/12/06 07:42:30;;;;;;;;;;;;;;;22.42;29.15;97165.94;5058381;28;1887;-75
2021/12/06 07:44:55;;;;;;;;;;;;;;;22.31;29.29;97170.00;5037249;28;893;-79
2021/12/06 07:47:21;;;;;;;;;;;;;;;22.34;29.25;97152.09;5054420;28;881;-80
2021/12/06 07:49:47;;;;;;;;;;;;;;;22.39;30.59;97162.00;5020289;28;885;-79
2021/12/06 07:52:12;;;;;;;;;;;;;;;22.86;29.46;97161.53;5037397;28;857;-79
2021/12/06 07:54:38;;;;;;;;;;;;;;;22.55;29.52;97160.91;5036786;28;1071;-79
2021/12/06 07:57:04;;;;;;;;;;;;;;;22.47;29.61;97156.81;5021323;28;949;-80
2021/12/06 07:59:29;;;;;;;;;;;;;;;22.28;29.80;97159.63;5019987;28;993;-80
2021/12/06 08:01:55;;;;;;;;;;;;;;;22.12;30.22;97151.41;5037083;28;1883;-83
2021/12/06 08:04:20;;;;;;;;;;;;;;;22.58;30.28;97154.28;5035843;28;986;-82
2021/12/06 08:06:46;;;;;;;;;;;;;;;22.77;29.69;97153.03;5037402;28;905;-82
2021/12/06 08:09:12;;;;;;;;;;;;;;;22.72;29.47;97156.50;5036854;28;1031;-82
2021/12/06 08:11:37;;;;;;;;;;;;;;;22.36;30.25;97157.28;5118169;22;3878;-81
2021/12/06 08:14:02;;;;;;;;;;;;;;;22.36;29.86;97157.28;5001071;28;1040;-80
2021/12/06 08:16:29;;;;;;;;;;;;;;;22.36;29.85;97155.22;5002171;28;784;-83
2021/12/06 08:18:55;;;;;;;;;;;;;;;22.57;30.43;97149.88;4999515;28;1104;-78
2021/12/06 08:21:21;;;;;;;;;;;;;;;22.73;30.12;97146.72;4990874;28;1318;-82
2021/12/06 08:23:49;;;;;;;;;;;;;;;22.76;29.69;97130.81;4990072;28;1899;-80
2021/12/06 08:26:14;;;;;;;;;;;;;;;22.46;29.75;97143.91;4993259;28;1408;-80
2021/12/06 08:28:40;;;;;;;;;;;;;;;22.25;30.15;97149.22;4976384;28;1215;-82
2021/12/06 08:31:05;;;;;;;;;;;;;;;22.08;30.13;97136.59;4993851;28;1235;-81
2021/12/06 08:33:31;;;;;;;;;;;;;;;22.51;30.42;97146.09;5005863;28;1377;-80
2021/12/06 08:35:57;;;;;;;;;;;;;;;22.86;29.77;97144.53;5009574;28;1352;-81
2021/12/06 08:38:24;;;;;;;;;;;;;;;22.95;29.68;97140.13;5007859;28;1222;-79
2021/12/06 08:40:49;;;;;;;;;;;;;;;22.64;29.80;97143.91;4958649;28;977;-80
2021/12/06 08:43:17;;;;;;;;;;;;;;;22.45;29.57;97140.28;4919567;29;1892;-81
2021/12/06 08:45:43;;;;;;;;;;;;;;;22.33;29.85;97142.00;4920873;29;1116;-82
2021/12/06 08:48:09;;;;;;;;;;;;;;;22.36;29.76;97143.88;4919905;29;1025;-81
2021/12/06 08:50:34;;;;;;;;;;;;;;;22.65;30.15;97142.66;4920963;29;966;-80
2021/12/06 08:53:00;;;;;;;;;;;;;;;22.71;29.78;97134.28;4900930;29;942;-83
2021/12/06 08:55:25;;;;;;;;;;;;;;;22.62;29.74;97141.53;4882456;29;1050;-81
2021/12/06 08:57:51;;;;;;;;;;;;;;;22.43;29.95;97133.50;4882580;29;1012;-82
2021/12/06 09:00:18;;;;;;;;;;;;;;;22.34;29.90;97132.25;4863566;29;1090;-79
2021/12/06 09:02:43;;;;;;;;;;;;;;;22.30;29.82;97128.78;4864037;29;1885;-83
2021/12/06 09:05:09;;;;;;;;;;;;;;;22.59;29.99;97124.69;4863801;29;1018;-82
2021/12/06 09:07:35;;;;;;;;;;;;;;;22.84;29.59;97118.66;4849500;29;882;-82
2021/12/06 09:10:00;;;;;;;;;;;;;;;22.84;29.39;97112.22;4863805;29;891;-81
2021/12/06 09:12:26;;;;;;;;;;;;;;;22.61;29.30;97113.66;4846276;29;1426;-81
2021/12/06 09:14:52;;;;;;;;;;;;;;;22.33;29.71;97119.34;4863444;29;1064;-82
2021/12/06 09:17:18;;;;;;;;;;;;;;;22.15;29.87;97113.63;4827662;29;1007;-82
2021/12/06 09:19:43;;;;;;;;;;;;;;;22.46;29.59;97102.16;4826868;29;984;-82
2021/12/06 09:22:09;;;;;;;;;;;;;;;22.65;30.05;97102.94;4827485;29;1888;-82
2021/12/06 09:24:34;;;;;;;;;;;;;;;22.91;29.73;97100.59;4855354;29;978;-82
2021/12/06 09:27:01;;;;;;;;;;;;;;;22.86;28.95;97099.13;4831594;29;949;-82
2021/12/06 09:29:26;;;;;;;;;;;;;;;22.72;29.27;97099.00;4863539;29;1282;-81
2021/12/06 09:31:52;;;;;;;;;;;;;;;22.47;29.62;97091.59;4861076;29;1364;-82
2021/12/06 09:34:18;;;;;;;;;;;;;;;22.25;29.74;97098.22;4881815;29;959;-83
2021/12/06 09:36:43;;;;;;;;;;;;;;;22.66;29.99;97084.66;4882234;29;1281;-82
2021/12/06 09:39:10;;;;;;;;;;;;;;;22.85;29.21;97085.44;4881791;29;1034;-82
2021/12/06 09:41:35;;;;;;;;;;;;;;;22.65;29.22;97088.78;4882588;29;1100;-83
2021/12/06 09:44:01;;;;;;;;;;;;;;;22.38;29.86;97080.25;4881459;29;1946;-81
2021/12/06 09:46:28;;;;;;;;;;;;;;;22.42;29.45;97095.84;4882705;29;994;-83
2021/12/06 09:48:54;;;;;;;;;;;;;;;22.28;29.39;97083.13;4881609;29;1247;-81
2021/12/06 09:51:24;;;;;;;;;;;;;;;22.02;30.03;97084.63;4882671;29;1070;-83
2021/12/06 09:53:53;;;;;;;;;;;;;;;22.49;30.01;97074.94;4881414;29;994;-79
2021/12/06 09:56:20;;;;;;;;;;;;;;;22.74;29.78;97074.59;4883254;29;915;-82
2021/12/06 09:58:46;;;;;;;;;;;;;;;22.99;29.02;97078.34;4912991;29;1056;-82
2021/12/06 10:01:15;;;;;;;;;;;;;;;22.64;29.45;97081.53;4952577;29;834;-82
2021/12/06 10:03:41;;;;;;;;;;;;;;;22.34;29.99;97067.06;4956762;29;1887;-81
2021/12/06 10:06:06;;;;;;;;;;;;;;;22.43;29.44;97062.63;4929079;28;894;-83
2021/12/06 10:08:33;;;;;;;;;;;;;;;22.48;30.05;97059.94;4956361;29;1076;-81
2021/12/06 10:10:59;;;;;;;;;;;;;;;22.75;29.82;97064.03;4953871;29;1215;-82
2021/12/06 10:13:24;;;;;;;;;;;;;;;22.77;29.57;97067.94;4917865;29;1218;-83
2021/12/06 10:18:38;;;;;;;;;;;;;;;22.42;29.63;97069.56;4994866;26;2920;-80
2021/12/06 10:21:04;;;;;;;;;;;;;;;22.28;29.49;97068.94;4998245;28;965;-81
2021/12/06 10:23:29;;;;;;;;;;;;;;;22.27;29.66;97058.84;4956095;29;1962;-80
2021/12/06 10:25:55;;;;;;;;;;;;;;;22.03;30.61;97077.72;4958252;29;978;-79
2021/12/06 10:28:23;;;;;;;;;;;;;;;22.72;30.17;97065.75;4956783;29;998;-81
2021/12/06 10:30:52;;;;;;;;;;;;;;;22.90;29.67;97064.16;4920065;29;1038;-79
2021/12/06 10:33:22;;;;;;;;;;;;;;;22.52;29.74;97054.13;4902835;29;1165;-80
2021/12/06 10:35:49;;;;;;;;;;;;;;;22.29;30.02;97052.72;4920049;29;990;-80
2021/12/06 10:41:05;;;;;;;;;;;;;;;22.79;30.29;97045.56;4982177;26;1950;-73
2021/12/06 10:43:31;;;;;;;;;;;;;;;23.29;29.76;97046.06;5207696;22;3410;-80
2021/12/06 10:45:56;;;;;;;;;;;;;;;23.44;29.89;97036.88;5004142;28;1140;-81
2021/12/06 10:48:29;;;;;;;;;;;;;;;22.96;30.22;97039.59;5002605;28;980;-82
2021/12/06 10:50:54;;;;;;;;;;;;;;;22.99;30.76;97035.78;5269345;22;4090;-80
2021/12/06 10:53:37;;;;;;;;;;;;;;;23.25;30.32;97036.94;5157048;22;3528;31
2021/12/06 10:56:03;;;;;;;;;;;;;;;23.45;30.16;97036.38;5017654;28;1273;-80
2021/12/06 10:58:29;;;;;;;;;;;;;;;23.21;30.12;97033.50;5001565;28;970;-81
2021/12/06 11:00:55;;;;;;;;;;;;;;;22.57;30.56;97025.91;5019256;28;901;-82
2021/12/06 11:03:22;;;;;;;;;;;;;;;22.49;30.27;97021.06;5017356;28;1895;-81
2021/12/06 11:06:09;;;;;;;;;;;;;;;22.19;30.34;97015.09;4979830;28;981;-83
2021/12/06 11:08:35;;;;;;;;;;;;;;;22.25;29.56;97003.94;4978875;29;965;-82
2021/12/06 11:13:58;;;;;;;;;;;;;;;22.08;29.96;97028.94;5017701;28;1326;-81
2021/12/06 11:16:27;;;;;;;;;;;;;;;22.45;30.11;97011.94;5186189;22;3486;-81
2021/12/06 11:18:53;;;;;;;;;;;;;;;22.74;30.47;97011.38;5020689;28;1050;-80
2021/12/06 11:21:24;;;;;;;;;;;;;;;22.81;30.21;97006.19;5038622;28;925;-81
2021/12/06 11:24:08;;;;;;;;;;;;;;;22.44;30.58;97005.50;5037723;28;1899;-81
2021/12/06 11:26:34;;;;;;;;;;;;;;;22.24;30.55;96999.53;5038565;28;902;-81
2021/12/06 11:29:08;;;;;;;;;;;;;;;22.40;30.33;97001.25;5021746;28;1040;-80
2021/12/06 11:31:34;;;;;;;;;;;;;;;22.34;30.19;96993.38;5022454;28;946;-81
2021/12/06 11:34:00;;;;;;;;;;;;;;;22.31;30.32;96990.69;5037504;28;926;-82
2021/12/06 11:36:27;;;;;;;;;;;;;;;22.74;30.45;96969.66;5038886;28;1000;-81
2021/12/06 11:39:00;;;;;;;;;;;;;;;22.77;30.52;96953.72;5036939;28;936;-81
2021/12/06 11:41:25;;;;;;;;;;;;;;;22.65;29.89;96957.56;4979088;28;1261;-82
2021/12/06 11:43:51;;;;;;;;;;;;;;;22.39;30.31;96965.66;4978534;29;1879;-78
2021/12/06 11:46:26;;;;;;;;;;;;;;;22.40;30.30;96953.06;5018912;22;3829;-83
2021/12/06 11:48:52;;;;;;;;;;;;;;;22.38;30.11;96959.19;5057639;28;837;-76
2021/12/06 11:51:18;;;;;;;;;;;;;;;22.37;30.01;96971.78;5057905;28;936;-82
2021/12/06 11:53:48;;;;;;;;;;;;;;;22.11;30.63;96968.50;5055491;28;970;-80
2021/12/06 11:56:14;;;;;;;;;;;;;;;22.80;30.39;96981.94;5058227;28;1064;-81
2021/12/06 11:58:40;;;;;;;;;;;;;;;22.86;29.88;96974.34;5056824;28;996;-82
2021/12/06 12:01:16;;;;;;;;;;;;;;;22.75;29.69;96968.41;5037943;28;1225;-81
2021/12/06 12:03:45;;;;;;;;;;;;;;;22.44;30.15;96970.69;5053673;28;1906;-82
2021/12/06 12:06:30;;;;;;;;;;;;;;;22.34;30.14;96984.09;5037986;28;887;-80
2021/12/06 12:09:01;;;;;;;;;;;;;;;22.21;30.32;96981.41;5037460;28;1005;-81
2021/12/06 12:11:27;;;;;;;;;;;;;;;22.27;30.28;96982.34;5037803;28;901;-83
2021/12/06 12:13:53;;;;;;;;;;;;;;;22.52;30.95;96984.03;5037133;28;876;-82
2021/12/06 12:16:21;;;;;;;;;;;;;;;22.81;30.07;96977.81;5037646;28;1092;-81
2021/12/06 12:18:47;;;;;;;;;;;;;;;22.79;29.70;96986.00;5017391;28;920;-80
2021/12/06 12:21:12;;;;;;;;;;;;;;;22.30;30.48;96989.91;5016159;28;877;-82
2021/12/06 12:23:38;;;;;;;;;;;;;;;22.36;30.40;96993.66;4996884;28;1915;-82
2021/12/06 12:26:12;;;;;;;;;;;;;;;22.30;30.46;96998.41;4997720;28;936;-81
2021/12/06 12:28:48;;;;;;;;;;;;;;;22.28;30.30;96998.09;4939509;29;974;-82
2021/12/06 12:31:13;;;;;;;;;;;;;;;22.40;30.05;96998.41;4922852;29;978;-80
2021/12/06 12:33:39;;;;;;;;;;;;;;;22.67;30.48;97001.16;4901521;29;1117;-81
2021/12/06 12:38:56;;;;;;;;;;;;;;;22.64;29.97;96985.13;5004602;26;2849;-79
2021/12/06 12:41:22;;;;;;;;;;;;;;;22.45;30.23;96980.75;4982161;28;1275;-81
2021/12/06 12:43:49;;;;;;;;;;;;;;;22.40;30.10;96998.41;4997198;28;1907;-81
2021/12/06 12:46:15;;;;;;;;;;;;;;;22.31;31.01;97002.81;4960023;29;962;-80
2021/12/06 12:48:53;;;;;;;;;;;;;;;22.75;30.37;97013.00;4942635;29;1017;-83
2021/12/06 12:51:30;;;;;;;;;;;;;;;22.99;29.81;97015.91;4959674;28;997;-82
2021/12/06 12:54:02;;;;;;;;;;;;;;;22.57;30.21;97010.97;4958521;29;1036;-81
2021/12/06 12:56:31;;;;;;;;;;;;;;;22.56;29.71;97017.91;4959351;29;969;-82
2021/12/06 12:58:58;;;;;;;;;;;;;;;22.54;29.58;97023.28;4958864;29;1036;-81
2021/12/06 13:04:12;;;;;;;;;;;;;;;22.58;30.04;97026.72;5061551;23;1895;-81
2021/12/06 13:06:38;;;;;;;;;;;;;;;22.85;30.41;97023.81;5018498;28;905;-81
2021/12/06 13:09:04;;;;;;;;;;;;;;;22.81;30.33;97026.03;4958026;29;1404;-81
2021/12/06 13:11:31;;;;;;;;;;;;;;;22.65;29.87;97034.13;4958883;29;970;-82
2021/12/06 13:13:58;;;;;;;;;;;;;;;22.43;30.25;97037.13;4919923;29;1014;-79
2021/12/06 13:16:58;;;;;;;;;;;;;;;22.46;30.20;97030.50;4920953;29;911;-80
2021/12/06 13:19:34;;;;;;;;;;;;;;;22.07;30.59;97035.84;4882360;29;970;-81
2021/12/06 13:22:07;;;;;;;;;;;;;;;22.15;30.36;97045.63;4883386;29;1888;-82
2021/12/06 13:24:33;;;;;;;;;;;;;;;22.20;30.29;97044.22;4882645;29;1026;-81
2021/12/06 13:27:00;;;;;;;;;;;;;;;22.62;30.80;97050.00;4864385;29;899;-82
2021/12/06 13:29:38;;;;;;;;;;;;;;;22.81;30.19;97054.41;4845794;29;963;-81
2021/12/06 13:32:43;;;;;;;;;;;;;;;22.56;30.50;97047.03;4831266;29;1005;-81